Time;durP1;ratioP1;P1;durP2;ratioP2;P2;SDS_P1;SDS_P2;PMS_P1;PMS_P2;Temp;Humidity;BMP_temperature;BMP_pressure;BME280_temperature;BME280_humidity;BME280_pressure;Samples;Min_cycle;Max_cycle;Signal;HPM_P1;HPM_P2
2020/12/06 00:02:20;;;;;;;31.53;19.17;;;2.50;99.90;;;;;;4927864;29;20214;-96
2020/12/06 00:04:45;;;;;;;26.70;17.83;;;2.50;99.90;;;;;;4927285;29;20238;-96
2020/12/06 00:07:13;;;;;;;29.00;18.97;;;2.60;99.90;;;;;;4926105;29;20189;-95
2020/12/06 00:09:39;;;;;;;26.33;17.83;;;2.50;99.90;;;;;;4926806;29;20277;-96
2020/12/06 00:12:04;;;;;;;28.90;18.90;;;2.50;99.90;;;;;;4926730;29;20223;-96
2020/12/06 00:14:31;;;;;;;28.30;19.60;;;2.60;99.90;;;;;;4926865;29;20649;-95
2020/12/06 00:16:57;;;;;;;30.93;18.90;;;2.50;99.90;;;;;;4927883;29;20200;-96
2020/12/06 00:19:32;;;;;;;33.83;20.67;;;2.50;99.90;;;;;;4926756;29;20286;-93
2020/12/06 00:21:59;;;;;;;32.93;19.43;;;2.60;99.90;;;;;;4926697;29;20274;-94
2020/12/06 00:24:24;;;;;;;32.23;19.63;;;2.50;99.90;;;;;;4927085;29;20257;-94
2020/12/06 00:26:51;;;;;;;31.67;20.50;;;2.60;99.90;;;;;;4926423;29;20191;-96
2020/12/06 00:29:24;;;;;;;28.67;19.37;;;2.60;99.90;;;;;;4925886;29;20191;-96
2020/12/06 00:31:50;;;;;;;32.67;18.93;;;2.60;99.90;;;;;;4925894;29;20189;-95
2020/12/06 00:34:16;;;;;;;33.20;21.07;;;2.60;99.90;;;;;;4925083;29;20191;-96
2020/12/06 00:36:41;;;;;;;30.97;17.73;;;2.60;99.90;;;;;;4923310;29;20186;-96
2020/12/06 00:39:15;;;;;;;30.70;18.50;;;2.60;99.90;;;;;;4923425;29;20183;-96
2020/12/06 00:41:44;;;;;;;26.50;17.53;;;2.60;99.90;;;;;;4923844;29;20227;-95
2020/12/06 00:44:10;;;;;;;29.97;19.07;;;2.60;99.90;;;;;;4924791;29;20182;-94
2020/12/06 00:46:36;;;;;;;30.33;18.33;;;2.60;99.90;;;;;;4923228;29;20194;-95
2020/12/06 00:49:10;;;;;;;26.77;18.57;;;2.60;99.90;;;;;;4923920;29;20517;-95
2020/12/06 00:51:35;;;;;;;25.77;17.67;;;2.60;99.90;;;;;;4922871;29;20202;-95
2020/12/06 00:54:01;;;;;;;27.73;18.40;;;2.60;99.90;;;;;;4923378;29;20519;-96
2020/12/06 00:56:27;;;;;;;27.37;17.73;;;2.60;99.90;;;;;;4924862;29;20271;-95
2020/12/06 00:58:53;;;;;;;27.70;17.67;;;2.60;99.90;;;;;;4924620;29;20199;-96
2020/12/06 01:01:19;;;;;;;28.83;17.33;;;2.60;99.90;;;;;;4925470;29;20290;-96
2020/12/06 01:03:45;;;;;;;26.90;17.93;;;2.60;99.90;;;;;;4911632;29;20186;-94
2020/12/06 01:06:19;;;;;;;28.03;17.53;;;2.60;99.90;;;;;;4926885;29;20182;-96
2020/12/06 01:08:52;;;;;;;26.57;18.37;;;2.60;99.90;;;;;;4926967;29;20181;-95
2020/12/06 01:11:17;;;;;;;27.03;18.03;;;2.60;99.90;;;;;;4927599;29;20233;-94
2020/12/06 01:13:43;;;;;;;29.63;19.27;;;2.50;99.90;;;;;;4926779;29;20188;-94
2020/12/06 01:16:12;;;;;;;27.17;17.80;;;2.50;99.90;;;;;;4925508;29;20258;-94
2020/12/06 01:18:38;;;;;;;28.30;17.77;;;2.60;99.90;;;;;;4926435;29;20201;-96
2020/12/06 01:21:04;;;;;;;25.17;17.43;;;2.60;99.90;;;;;;4909937;29;20226;-96
2020/12/06 01:23:30;;;;;;;27.03;17.77;;;2.60;99.90;;;;;;4872878;29;1009032;-96
2020/12/06 01:25:55;;;;;;;30.30;18.53;;;2.60;99.90;;;;;;4907566;29;20192;-94
2020/12/06 01:28:22;;;;;;;25.13;17.13;;;2.60;99.90;;;;;;4909042;29;20265;-96
2020/12/06 01:30:47;;;;;;;29.27;18.43;;;2.60;99.90;;;;;;4907556;29;20182;-96
2020/12/06 01:33:14;;;;;;;28.33;18.67;;;2.60;99.90;;;;;;4909061;29;20210;-96
2020/12/06 01:35:40;;;;;;;26.97;17.90;;;2.70;99.90;;;;;;4907370;29;20184;-96
2020/12/06 01:38:07;;;;;;;28.73;18.50;;;2.60;99.90;;;;;;4893055;29;20189;-96
2020/12/06 01:40:41;;;;;;;29.40;16.87;;;2.70;99.90;;;;;;4908053;29;20217;-96
2020/12/06 01:43:10;;;;;;;25.67;17.60;;;2.70;99.90;;;;;;4908606;29;20214;-96
2020/12/06 01:45:37;;;;;;;26.30;16.60;;;2.70;99.90;;;;;;4909159;29;20183;-96
2020/12/06 01:48:09;;;;;;;28.47;17.50;;;2.70;99.90;;;;;;4911086;29;20189;-96
2020/12/06 01:50:36;;;;;;;27.67;17.63;;;2.70;99.90;;;;;;4923878;29;20189;-96
2020/12/06 01:53:03;;;;;;;29.70;18.10;;;2.70;99.90;;;;;;4931660;29;20245;-96
2020/12/06 01:55:30;;;;;;;28.70;17.30;;;2.60;99.90;;;;;;4930245;29;20235;-96
2020/12/06 01:58:15;;;;;;;25.97;17.17;;;2.60;99.90;;;;;;4931162;29;20514;-96
2020/12/06 02:00:40;;;;;;;25.60;17.43;;;2.60;99.90;;;;;;4930713;29;20204;-95
2020/12/06 02:03:06;;;;;;;27.80;17.37;;;2.60;99.90;;;;;;4929144;29;20610;-96
2020/12/06 02:05:33;;;;;;;25.23;16.77;;;2.60;99.90;;;;;;4915660;29;20220;-96
2020/12/06 02:07:59;;;;;;;26.40;16.80;;;2.60;99.90;;;;;;4930970;29;20269;-94
2020/12/06 02:10:31;;;;;;;27.80;17.53;;;2.60;99.90;;;;;;4930776;29;20197;-93
2020/12/06 02:12:57;;;;;;;23.67;16.70;;;2.60;99.90;;;;;;4932741;29;20188;-96
2020/12/06 02:15:23;;;;;;;24.43;16.83;;;2.60;99.90;;;;;;4931850;29;20184;-96
2020/12/06 02:17:52;;;;;;;25.87;18.13;;;2.60;99.90;;;;;;4932054;29;20201;-96
2020/12/06 02:20:19;;;;;;;25.00;16.23;;;2.60;99.90;;;;;;4919427;29;20217;-95
2020/12/06 02:22:44;;;;;;;29.03;17.87;;;2.60;99.90;;;;;;4910422;29;20187;-96
2020/12/06 02:25:10;;;;;;;28.07;18.17;;;2.60;99.90;;;;;;4910410;29;20243;-96
2020/12/06 02:27:36;;;;;;;25.83;16.80;;;2.60;99.90;;;;;;4911302;29;20193;-96
2020/12/06 02:30:04;;;;;;;25.70;16.57;;;2.60;99.90;;;;;;4910916;29;20192;-95
2020/12/06 02:32:29;;;;;;;27.00;17.67;;;2.70;99.90;;;;;;4911143;29;20187;-96
2020/12/06 02:34:55;;;;;;;24.63;16.93;;;2.70;99.90;;;;;;4909715;29;20265;-96
2020/12/06 02:37:21;;;;;;;25.37;16.40;;;2.60;99.90;;;;;;4911717;29;20532;-96
2020/12/06 02:39:50;;;;;;;26.37;16.90;;;2.70;99.90;;;;;;4910693;29;20676;-96
2020/12/06 02:42:16;;;;;;;26.50;16.87;;;2.70;99.90;;;;;;4911030;29;20186;-96
2020/12/06 02:44:42;;;;;;;26.87;17.17;;;2.70;99.90;;;;;;4912448;29;20277;-95
2020/12/06 02:47:08;;;;;;;26.43;17.80;;;2.60;99.90;;;;;;4911673;29;20210;-96
2020/12/06 02:49:33;;;;;;;27.27;17.30;;;2.60;99.90;;;;;;4916075;29;20186;-96
2020/12/06 02:51:59;;;;;;;26.40;17.53;;;2.60;99.90;;;;;;4931938;29;20187;-96
2020/12/06 02:54:25;;;;;;;26.40;17.90;;;2.60;99.90;;;;;;4929029;29;20189;-94
2020/12/06 02:56:50;;;;;;;28.77;17.47;;;2.60;99.90;;;;;;4924508;29;20197;-95
2020/12/06 02:59:17;;;;;;;25.77;17.33;;;2.60;99.90;;;;;;4923247;29;20190;-94
2020/12/06 03:01:43;;;;;;;29.77;17.73;;;2.60;99.90;;;;;;4923723;29;20183;-95
2020/12/06 03:04:08;;;;;;;28.13;17.57;;;2.60;99.90;;;;;;4923928;29;20174;-95
2020/12/06 03:06:34;;;;;;;24.50;16.73;;;2.60;99.90;;;;;;4923610;29;20191;-94
2020/12/06 03:09:09;;;;;;;25.63;16.57;;;2.60;99.90;;;;;;4940591;29;20487;-94
2020/12/06 03:11:34;;;;;;;26.17;17.47;;;2.70;99.90;;;;;;4923962;29;20180;-94
2020/12/06 03:14:00;;;;;;;26.77;16.70;;;2.60;99.90;;;;;;4923593;29;20389;-94
2020/12/06 03:16:26;;;;;;;27.07;17.97;;;2.70;99.90;;;;;;4923892;29;20216;-94
2020/12/06 03:18:51;;;;;;;25.10;17.47;;;2.70;99.90;;;;;;4923389;29;20215;-95
2020/12/06 03:21:17;;;;;;;26.00;17.13;;;2.70;99.90;;;;;;4905717;29;20221;-95
2020/12/06 03:23:43;;;;;;;27.37;17.37;;;2.70;99.90;;;;;;4904401;29;20230;-95
2020/12/06 03:26:08;;;;;;;26.90;17.53;;;2.60;99.90;;;;;;4904795;29;20189;-95
2020/12/06 03:28:34;;;;;;;25.10;17.47;;;2.70;99.90;;;;;;4904435;29;20268;-94
2020/12/06 03:31:00;;;;;;;27.63;18.13;;;2.70;99.90;;;;;;4904504;29;20183;-94
2020/12/06 03:33:26;;;;;;;27.57;17.47;;;2.70;99.90;;;;;;4904411;29;20187;-94
2020/12/06 03:35:51;;;;;;;27.97;17.93;;;2.70;99.90;;;;;;4904183;29;20638;-95
2020/12/06 03:38:17;;;;;;;27.80;18.17;;;2.80;99.90;;;;;;4905046;29;20182;-94
2020/12/06 06:11:30;;;;;;;39.43;21.57;;;3.00;99.90;;;;;;5288602;23;20217;-96
2020/12/06 07:35:23;;;;;;;34.13;20.70;;;2.90;99.90;;;;;;5052237;23;20276;-96
2020/12/06 09:36:22;;;;;;;35.37;19.77;;;3.40;99.90;;;;;;1296053;23;20403;-96
2020/12/06 09:42:26;;;;;;;32.60;19.83;;;3.50;99.90;;;;;;5613551;23;20221;31
2020/12/06 09:55:23;;;;;;;31.77;20.47;;;3.60;99.90;;;;;;5995238;23;20825;31
2020/12/06 10:26:03;;;;;;;33.80;20.27;;;3.80;99.90;;;;;;5658643;23;20210;-95
2020/12/06 10:28:49;;;;;;;34.80;21.70;;;3.80;99.90;;;;;;4913965;23;20249;-96
2020/12/06 10:32:03;;;;;;;31.23;20.33;;;3.80;99.90;;;;;;4907672;29;20202;-96
2020/12/06 10:34:39;;;;;;;33.40;20.70;;;3.80;99.90;;;;;;4909097;29;20187;-96
2020/12/06 10:57:48;;;;;;;32.40;20.93;;;4.00;99.90;;;;;;4889084;29;20217;-96
2020/12/06 11:00:18;;;;;;;32.93;21.07;;;4.00;99.90;;;;;;4880784;29;20223;-96
2020/12/06 11:03:02;;;;;;;;;;;;;;;;;;;;;
2020/12/06 11:31:03;;;;;;;31.10;20.73;;;4.10;99.90;;;;;;5003851;23;20252;-96
2020/12/06 11:33:30;;;;;;;34.47;20.83;;;4.20;99.90;;;;;;4931015;29;20187;-96
2020/12/06 11:35:58;;;;;;;34.97;21.40;;;4.10;99.90;;;;;;4930650;29;20242;-95
2020/12/06 11:38:28;;;;;;;33.67;21.43;;;4.20;99.90;;;;;;4913687;29;20174;-96
2020/12/06 11:41:00;;;;;;;36.80;22.13;;;4.20;99.90;;;;;;4911520;29;20214;-94
2020/12/06 11:43:30;;;;;;;35.70;21.67;;;4.20;99.90;;;;;;4936538;23;20301;-96
2020/12/06 11:45:58;;;;;;;34.07;21.90;;;4.20;99.90;;;;;;4894195;29;20191;-96
2020/12/06 11:49:07;;;;;;;33.53;20.40;;;4.30;99.90;;;;;;4919477;29;20164;-96
2020/12/06 11:51:37;;;;;;;29.50;19.73;;;4.30;99.90;;;;;;4898048;29;20214;-94
2020/12/06 11:54:08;;;;;;;33.53;20.60;;;4.30;99.90;;;;;;4894353;29;20192;-96
2020/12/06 11:56:35;;;;;;;31.70;21.37;;;4.30;99.90;;;;;;4892569;29;20247;-96
2020/12/06 11:59:05;;;;;;;34.43;21.60;;;4.30;99.90;;;;;;4893345;29;20191;-94
2020/12/06 12:01:35;;;;;;;31.97;19.73;;;4.40;99.90;;;;;;4894314;29;20247;-95
2020/12/06 12:04:04;;;;;;;33.77;21.63;;;4.40;99.90;;;;;;4910295;29;20192;-95
2020/12/06 12:06:37;;;;;;;35.40;22.37;;;4.40;99.90;;;;;;4894403;29;20199;-95
2020/12/06 12:09:32;;;;;;;38.23;22.33;;;4.40;99.90;;;;;;4880323;29;20171;-94
2020/12/06 12:12:06;;;;;;;33.23;21.47;;;4.40;99.90;;;;;;4891976;29;20271;-95
2020/12/06 12:14:32;;;;;;;33.90;22.13;;;4.50;99.90;;;;;;4898067;29;20187;-94
2020/12/06 12:17:01;;;;;;;32.23;20.47;;;4.50;99.90;;;;;;4898198;29;20179;-95
2020/12/06 12:19:36;;;;;;;34.00;21.60;;;4.50;99.90;;;;;;4916585;23;20223;-96
2020/12/06 12:22:54;;;;;;;35.67;22.00;;;4.50;99.90;;;;;;4893985;29;20271;-94
2020/12/06 12:25:23;;;;;;;36.47;21.83;;;4.50;99.90;;;;;;4887601;29;20175;-96
2020/12/06 12:27:52;;;;;;;32.57;20.77;;;4.60;99.90;;;;;;4925242;23;20294;-96
2020/12/06 12:30:52;;;;;;;37.70;22.90;;;4.60;99.90;;;;;;4914577;29;20197;-96
2020/12/06 12:33:31;;;;;;;37.43;22.63;;;4.50;99.90;;;;;;4920419;28;20171;-96
2020/12/06 12:36:03;;;;;;;34.40;21.93;;;4.50;99.90;;;;;;4937534;23;20258;-95
2020/12/06 12:38:56;;;;;;;31.90;21.90;;;4.50;99.90;;;;;;4900263;29;20203;-95
2020/12/06 12:41:23;;;;;;;36.97;21.97;;;4.40;99.90;;;;;;4917336;28;20305;-95
2020/12/06 12:44:09;;;;;;;35.70;22.70;;;4.40;99.90;;;;;;4901948;29;20170;-95
2020/12/06 12:46:35;;;;;;;35.13;22.33;;;4.40;99.90;;;;;;4896080;29;20641;-96
2020/12/06 12:51:31;;;;;;;40.50;22.93;;;4.30;99.90;;;;;;4914660;29;20251;-96
2020/12/06 12:54:02;;;;;;;38.73;23.00;;;4.40;99.90;;;;;;4901067;29;20205;-96
2020/12/06 12:56:33;;;;;;;37.23;23.53;;;4.40;99.90;;;;;;4967929;23;20218;-96
2020/12/06 12:59:28;;;;;;;37.80;23.77;;;4.30;99.90;;;;;;4920593;29;20260;-96
2020/12/06 13:02:26;;;;;;;39.00;22.77;;;4.40;99.90;;;;;;4919734;29;20226;-96
2020/12/06 13:04:57;;;;;;;37.53;24.23;;;4.40;99.90;;;;;;5017197;23;20239;-96
2020/12/06 13:07:29;;;;;;;35.33;22.33;;;4.30;99.90;;;;;;4922690;29;20226;-96
2020/12/06 13:10:02;;;;;;;36.20;23.17;;;4.30;99.90;;;;;;4919360;29;20190;-96
2020/12/06 13:12:28;;;;;;;36.37;22.60;;;4.40;99.90;;;;;;4901572;29;20206;-96
2020/12/06 13:15:02;;;;;;;35.03;22.90;;;4.40;99.90;;;;;;4935308;29;20198;-96
2020/12/06 13:17:42;;;;;;;37.60;23.50;;;4.40;99.90;;;;;;4919500;29;20171;-96
2020/12/06 13:20:11;;;;;;;43.13;25.00;;;4.40;99.90;;;;;;4950033;23;20238;-96
2020/12/06 13:22:39;;;;;;;34.87;22.07;;;4.40;99.90;;;;;;4919012;29;20205;-96
2020/12/06 13:25:14;;;;;;;37.17;23.73;;;4.40;99.90;;;;;;4934049;29;20190;-96
2020/12/06 13:27:40;;;;;;;34.03;22.17;;;4.40;99.90;;;;;;5088189;23;20245;-96
2020/12/06 13:30:07;;;;;;;38.83;22.73;;;4.50;99.90;;;;;;4916714;29;20230;-96
2020/12/06 13:35:01;;;;;;;41.80;24.30;;;4.40;99.90;;;;;;4975914;23;20262;-96
2020/12/06 13:37:37;;;;;;;38.23;24.00;;;4.40;99.90;;;;;;4928650;23;20270;-96
2020/12/06 13:40:25;;;;;;;38.03;24.30;;;4.40;99.90;;;;;;4882702;29;20203;-96
2020/12/06 13:43:25;;;;;;;;;;;;;;;;;;;;;
2020/12/06 13:45:54;;;;;;;36.33;21.80;;;4.40;99.90;;;;;;4923606;28;20339;-96
2020/12/06 13:48:47;;;;;;;36.70;24.03;;;4.40;99.90;;;;;;4911747;29;20205;-96
2020/12/06 13:51:29;;;;;;;38.80;23.83;;;4.40;99.90;;;;;;4901990;29;20215;-96
2020/12/06 13:54:06;;;;;;;34.80;21.53;;;4.40;99.90;;;;;;4902746;29;20339;-96
2020/12/06 14:00:23;;;;;;;;;;;;;;;;;;;;;
2020/12/06 14:02:59;;;;;;;36.37;23.40;;;4.40;99.90;;;;;;4828284;29;20195;-96
2020/12/06 14:05:26;;;;;;;43.50;24.57;;;4.40;99.90;;;;;;4863765;29;20284;-96
2020/12/06 14:08:20;;;;;;;36.53;24.37;;;4.40;99.90;;;;;;4935992;29;20222;-96
2020/12/06 14:11:03;;;;;;;38.30;24.40;;;4.40;99.90;;;;;;4886197;29;20202;-96
2020/12/06 14:13:30;;;;;;;39.53;25.17;;;4.40;99.90;;;;;;4919875;29;20226;-96
2020/12/06 14:15:58;;;;;;;38.57;23.53;;;4.40;99.90;;;;;;4899506;29;20189;-96
2020/12/06 14:24:54;;;;;;;39.33;24.13;;;4.30;99.90;;;;;;5007299;23;20234;-96
2020/12/06 14:27:24;;;;;;;38.13;24.90;;;4.30;99.90;;;;;;5005142;23;21119;-96
2020/12/06 14:39:41;;;;;;;40.70;24.03;;;4.30;99.90;;;;;;5817430;23;21571;-96
2020/12/06 15:18:03;;;;;;;38.17;24.20;;;4.00;99.90;;;;;;4913678;29;20238;-96
2020/12/06 15:20:31;;;;;;;38.87;24.23;;;4.00;99.90;;;;;;4899152;29;20230;-96
2020/12/06 15:23:00;;;;;;;40.33;25.13;;;4.00;99.90;;;;;;4915764;29;20183;-95
2020/12/06 15:25:31;;;;;;;40.17;25.50;;;4.00;99.90;;;;;;4899595;29;20190;-96
2020/12/06 15:28:04;;;;;;;38.07;23.70;;;4.00;99.90;;;;;;4899663;29;20199;-95
2020/12/06 15:30:42;;;;;;;38.53;24.43;;;4.00;99.90;;;;;;4913614;29;20196;-95
2020/12/06 15:33:15;;;;;;;250.87;116.97;;;4.10;99.90;;;;;;4896786;29;20175;-95
2020/12/06 15:35:41;;;;;;;43.47;26.20;;;4.00;99.90;;;;;;4895125;29;20191;-96
2020/12/06 15:38:12;;;;;;;39.57;24.17;;;4.00;99.90;;;;;;4912609;29;20183;-96
2020/12/06 15:45:46;;;;;;;40.87;25.57;;;4.00;99.90;;;;;;4912216;29;20231;-95
2020/12/06 15:48:14;;;;;;;36.57;24.00;;;4.00;99.90;;;;;;4882608;29;20206;-96
2020/12/06 15:50:46;;;;;;;38.63;24.10;;;4.00;99.90;;;;;;4890102;29;20179;-94
2020/12/06 15:53:18;;;;;;;39.10;23.87;;;4.00;99.90;;;;;;4878649;29;20191;-95
2020/12/06 15:55:44;;;;;;;39.83;25.93;;;4.00;99.90;;;;;;4903046;29;20182;-95
2020/12/06 15:58:12;;;;;;;41.17;25.37;;;3.90;99.90;;;;;;4886304;29;20239;-95
2020/12/06 16:00:39;;;;;;;43.53;26.83;;;3.90;99.90;;;;;;4907905;29;20223;-95
2020/12/06 16:03:06;;;;;;;41.83;26.17;;;4.00;99.90;;;;;;4900202;29;20514;-95
2020/12/06 16:05:33;;;;;;;47.33;26.37;;;4.00;99.90;;;;;;4899492;29;20174;-93
2020/12/06 16:08:00;;;;;;;39.13;24.33;;;3.90;99.90;;;;;;4898726;29;20274;-96
2020/12/06 16:10:26;;;;;;;40.33;26.30;;;4.00;99.90;;;;;;4929334;23;20328;-96
2020/12/06 16:12:58;;;;;;;42.50;25.40;;;3.90;99.90;;;;;;4917925;29;20194;-95
2020/12/06 16:15:24;;;;;;;46.90;26.90;;;4.00;99.90;;;;;;4902453;29;20194;-96
2020/12/06 16:17:56;;;;;;;42.30;25.97;;;3.90;99.90;;;;;;4916612;29;20242;-96
2020/12/06 16:20:48;;;;;;;38.37;25.17;;;4.00;99.90;;;;;;4918037;29;20210;-96
2020/12/06 16:23:16;;;;;;;42.53;25.23;;;4.00;99.90;;;;;;4936566;29;20173;-96
2020/12/06 16:25:45;;;;;;;46.10;26.97;;;3.90;99.90;;;;;;4919857;29;20223;-95
2020/12/06 16:28:13;;;;;;;42.77;26.17;;;3.90;99.90;;;;;;4919052;29;20208;-95
2020/12/06 16:30:44;;;;;;;45.47;25.70;;;3.90;99.90;;;;;;4935142;29;20170;-94
2020/12/06 16:33:11;;;;;;;45.67;26.80;;;3.90;99.90;;;;;;4937047;28;20193;-95
2020/12/06 16:35:38;;;;;;;43.30;25.53;;;3.90;99.90;;;;;;4934904;29;20171;-95
2020/12/06 16:38:06;;;;;;;44.70;26.97;;;3.90;99.90;;;;;;4920083;29;20191;-94
2020/12/06 16:40:52;;;;;;;43.20;26.10;;;3.90;99.90;;;;;;4920438;29;20206;-94
2020/12/06 16:43:24;;;;;;;41.60;25.00;;;3.90;99.90;;;;;;4920886;29;20201;-95
2020/12/06 16:45:50;;;;;;;40.93;26.20;;;3.90;99.90;;;;;;4937369;29;20181;-95
2020/12/06 16:48:19;;;;;;;43.60;26.47;;;3.90;99.90;;;;;;4936258;29;20241;-94
2020/12/06 16:51:13;;;;;;;42.93;26.77;;;3.90;99.90;;;;;;4937010;29;20206;-95
2020/12/06 16:53:40;;;;;;;42.77;25.97;;;3.80;99.90;;;;;;4909919;29;20222;-96
2020/12/06 16:56:06;;;;;;;40.73;25.60;;;3.90;99.90;;;;;;4938484;29;20187;-96
2020/12/06 16:58:33;;;;;;;41.57;26.20;;;3.90;99.90;;;;;;4938858;28;20187;-95
2020/12/06 17:01:44;;;;;;;44.50;26.53;;;3.90;99.90;;;;;;4922200;29;20218;-94
2020/12/06 17:04:10;;;;;;;41.80;26.13;;;3.90;99.90;;;;;;4922981;29;20181;-94
2020/12/06 17:06:45;;;;;;;45.10;25.90;;;3.90;99.90;;;;;;4921560;29;20167;-96
2020/12/06 17:09:15;;;;;;;42.17;26.50;;;3.90;99.90;;;;;;4937001;29;20221;-96
2020/12/06 17:11:50;;;;;;;43.40;28.03;;;3.90;99.90;;;;;;4920052;29;20184;-96
2020/12/06 17:14:16;;;;;;;46.03;29.50;;;3.90;99.90;;;;;;4901397;29;20186;-96
2020/12/06 17:16:52;;;;;;;41.17;25.70;;;3.90;99.90;;;;;;4899527;29;20171;-96
2020/12/06 17:19:31;;;;;;;44.10;28.27;;;3.90;99.90;;;;;;4912161;29;20236;-96
2020/12/06 17:22:24;;;;;;;43.70;26.17;;;3.90;99.90;;;;;;4890495;29;20220;-96
2020/12/06 17:25:08;;;;;;;45.50;26.47;;;3.90;99.90;;;;;;4906315;29;20167;-96
2020/12/06 17:28:04;;;;;;;46.20;28.57;;;3.90;99.90;;;;;;4908021;29;20646;-96
2020/12/06 17:30:57;;;;;;;44.30;28.43;;;3.90;99.90;;;;;;4899961;29;20266;-96
2020/12/06 17:33:35;;;;;;;45.43;28.23;;;3.90;99.90;;;;;;4891841;29;20182;-96
2020/12/06 17:36:09;;;;;;;42.57;27.33;;;3.90;99.90;;;;;;4885726;29;20269;-96
2020/12/06 17:38:47;;;;;;;43.90;26.70;;;3.80;99.90;;;;;;4888790;29;20615;-95
2020/12/06 17:44:42;;;;;;;40.47;25.30;;;3.80;99.90;;;;;;4906720;29;20195;-96
2020/12/06 17:47:23;;;;;;;40.23;26.80;;;3.80;99.90;;;;;;4892059;29;20214;-96
2020/12/06 17:49:57;;;;;;;43.10;26.10;;;3.80;99.90;;;;;;4886008;29;20178;-96
2020/12/06 17:52:33;;;;;;;39.20;25.17;;;3.80;99.90;;;;;;4884790;29;20186;-96
2020/12/06 17:55:32;;;;;;;39.17;24.93;;;3.70;99.90;;;;;;4882690;29;20681;-96
2020/12/06 17:58:03;;;;;;;40.27;25.67;;;3.80;99.90;;;;;;4884351;29;20277;-96
2020/12/06 18:00:29;;;;;;;41.77;26.67;;;3.70;99.90;;;;;;4884597;29;20226;-95
2020/12/06 18:03:11;;;;;;;45.97;28.50;;;3.90;99.90;;;;;;4991070;23;20570;-96
2020/12/06 18:05:44;;;;;;;41.10;28.03;;;4.00;99.90;;;;;;4912528;29;20210;-96
2020/12/06 18:08:56;;;;;;;;;;;;;;;;;;;;;
2020/12/06 18:16:54;;;;;;;;;;;;;;;;;;;;;
2020/12/06 18:20:04;;;;;;;;;;;;;;;;;;;;;
2020/12/06 18:26:00;;;;;;;43.30;26.63;;;3.80;99.90;;;;;;4869714;29;20196;-96
2020/12/06 18:28:37;;;;;;;44.67;28.77;;;3.70;99.90;;;;;;4868996;29;20196;-96
2020/12/06 18:47:18;;;;;;;44.33;27.33;;;3.50;99.90;;;;;;4899580;29;20248;-93
2020/12/06 18:49:45;;;;;;;41.77;27.33;;;3.40;99.90;;;;;;4899384;29;20203;-93
2020/12/06 18:52:25;;;;;;;42.80;27.13;;;3.40;99.90;;;;;;4890753;29;20251;-94
2020/12/06 18:54:52;;;;;;;40.63;24.67;;;3.40;99.90;;;;;;4911930;23;20237;-93
2020/12/06 18:57:17;;;;;;;39.90;24.60;;;3.40;99.90;;;;;;4896467;29;20270;-93
2020/12/06 18:59:44;;;;;;;38.43;25.00;;;3.30;99.90;;;;;;4880484;29;20203;-93
2020/12/06 19:02:15;;;;;;;37.60;23.47;;;3.30;99.90;;;;;;4884531;29;20232;-93
2020/12/06 19:04:40;;;;;;;38.97;24.37;;;3.30;99.90;;;;;;4909731;29;20281;-94
2020/12/06 19:07:06;;;;;;;36.73;23.70;;;3.30;99.90;;;;;;4866917;29;20647;-93
2020/12/06 19:09:32;;;;;;;35.70;23.13;;;3.30;99.90;;;;;;4912013;29;20568;-94
2020/12/06 19:12:01;;;;;;;40.83;25.77;;;3.20;99.90;;;;;;4884856;29;20234;-94
2020/12/06 19:14:43;;;;;;;45.60;28.93;;;3.20;99.90;;;;;;4877400;29;20226;-93
2020/12/06 19:17:09;;;;;;;48.10;29.87;;;3.30;99.90;;;;;;4978788;23;20266;-95
2020/12/06 19:20:12;;;;;;;54.33;31.33;;;3.30;99.90;;;;;;4907842;29;20249;-96
2020/12/06 19:26:05;;;;;;;46.83;30.43;;;3.40;99.90;;;;;;5386846;23;20347;-96
2020/12/06 19:28:36;;;;;;;47.87;30.20;;;3.40;99.90;;;;;;4869900;29;20192;-95
2020/12/06 19:31:03;;;;;;;48.80;30.43;;;3.40;99.90;;;;;;4874160;29;20200;-96
2020/12/06 19:33:35;;;;;;;51.50;31.97;;;3.40;99.90;;;;;;4870917;29;20191;-96
2020/12/06 19:36:01;;;;;;;48.50;30.87;;;3.40;99.90;;;;;;4868694;29;20196;-96
2020/12/06 19:38:27;;;;;;;61.27;38.63;;;3.40;99.90;;;;;;4868959;29;20283;-96
2020/12/06 19:40:56;;;;;;;57.67;35.77;;;3.40;99.90;;;;;;4866946;29;20224;-96
2020/12/06 19:43:26;;;;;;;55.73;34.60;;;3.40;99.90;;;;;;4870864;29;20192;-96
2020/12/06 19:45:54;;;;;;;48.03;31.70;;;3.40;99.90;;;;;;4883189;29;20192;-96
2020/12/06 19:48:23;;;;;;;52.37;32.10;;;3.40;99.90;;;;;;4868801;29;20204;-95
2020/12/06 19:50:49;;;;;;;44.63;29.03;;;3.50;99.90;;;;;;4874352;29;20226;-96
2020/12/06 19:53:19;;;;;;;46.43;29.33;;;3.40;99.90;;;;;;4865975;29;20279;-95
2020/12/06 19:55:45;;;;;;;49.13;29.93;;;3.50;99.90;;;;;;4867918;29;20187;-95
2020/12/06 19:58:14;;;;;;;47.80;30.67;;;3.50;99.90;;;;;;4869947;29;20196;-96
2020/12/06 20:00:40;;;;;;;47.40;29.67;;;3.50;99.90;;;;;;4865797;29;20219;-96
2020/12/06 20:03:06;;;;;;;47.17;30.40;;;3.40;99.90;;;;;;4866422;29;20521;-95
2020/12/06 20:05:37;;;;;;;49.37;31.43;;;3.40;99.90;;;;;;4871887;29;20199;-94
2020/12/06 20:08:03;;;;;;;47.83;30.53;;;3.50;99.90;;;;;;4875363;29;20195;-95
2020/12/06 20:10:40;;;;;;;49.83;31.90;;;3.50;99.90;;;;;;4857461;29;20200;-95
2020/12/06 20:13:26;;;;;;;46.70;29.80;;;3.50;99.90;;;;;;4887813;29;20620;-95
2020/12/06 20:15:53;;;;;;;44.43;29.90;;;3.40;99.90;;;;;;4869001;29;20548;-96
2020/12/06 20:18:25;;;;;;;40.93;27.63;;;3.40;99.90;;;;;;4865464;29;20198;-96
2020/12/06 20:20:51;;;;;;;43.43;27.47;;;3.40;99.90;;;;;;4869941;29;20690;-95
2020/12/06 20:23:17;;;;;;;45.80;28.73;;;3.40;99.90;;;;;;4870586;29;20286;-95
2020/12/06 20:25:43;;;;;;;48.50;28.67;;;3.30;99.90;;;;;;4865795;29;20322;-96
2020/12/06 20:28:10;;;;;;;43.73;28.30;;;3.40;99.90;;;;;;4870543;29;20537;-96
2020/12/06 20:30:42;;;;;;;42.73;28.27;;;3.30;99.90;;;;;;4867829;29;20206;-96
2020/12/06 20:33:08;;;;;;;44.17;29.47;;;3.40;99.90;;;;;;4867934;29;20196;-95
2020/12/06 20:35:34;;;;;;;43.70;28.27;;;3.30;99.90;;;;;;4868319;29;20626;-95
2020/12/06 20:38:00;;;;;;;46.50;28.57;;;3.30;99.90;;;;;;4872066;29;20196;-95
2020/12/06 20:40:35;;;;;;;49.60;31.53;;;3.30;99.90;;;;;;4866059;29;20216;-96
2020/12/06 20:43:12;;;;;;;49.53;31.10;;;3.30;99.90;;;;;;4868774;29;20242;-95
2020/12/06 20:45:41;;;;;;;53.63;33.33;;;3.30;99.90;;;;;;4865543;29;20217;-95
2020/12/06 20:48:09;;;;;;;57.07;35.63;;;3.30;99.90;;;;;;4880548;29;20187;-95
2020/12/06 20:50:38;;;;;;;65.27;43.83;;;3.30;99.90;;;;;;4858004;29;20299;-95
2020/12/06 20:53:20;;;;;;;56.23;35.93;;;3.30;99.90;;;;;;4886189;29;20197;-96
2020/12/06 20:55:46;;;;;;;55.97;33.03;;;3.20;99.90;;;;;;4865698;29;20188;-96
2020/12/06 20:58:12;;;;;;;55.33;31.23;;;3.30;99.90;;;;;;4865862;29;20191;-94
2020/12/06 21:00:39;;;;;;;45.77;29.53;;;3.30;99.90;;;;;;4863140;29;20287;-95
2020/12/06 21:03:09;;;;;;;49.93;31.00;;;3.30;99.90;;;;;;4857182;29;20184;-96
2020/12/06 21:05:36;;;;;;;43.23;28.50;;;3.20;99.90;;;;;;4865261;29;20192;-94
2020/12/06 21:08:41;;;;;;;46.07;28.03;;;3.20;99.90;;;;;;4863623;29;20192;-96
2020/12/06 21:11:16;;;;;;;48.47;28.43;;;3.20;99.90;;;;;;4863408;29;20199;-95
2020/12/06 21:13:43;;;;;;;48.73;29.07;;;3.20;99.90;;;;;;4864148;29;20198;-96
2020/12/06 21:16:12;;;;;;;41.77;26.83;;;3.30;99.90;;;;;;4845883;29;20200;-95
2020/12/06 21:18:41;;;;;;;52.37;28.90;;;3.20;99.90;;;;;;4863755;29;20627;-95
2020/12/06 21:21:11;;;;;;;42.73;28.03;;;3.30;99.90;;;;;;4849803;29;20224;-96
2020/12/06 21:23:47;;;;;;;43.17;27.40;;;3.30;99.90;;;;;;4866083;29;20235;-96
2020/12/06 21:26:14;;;;;;;42.13;26.50;;;3.30;99.90;;;;;;4870383;29;20675;-95
2020/12/06 21:28:44;;;;;;;39.47;26.43;;;3.30;99.90;;;;;;4868782;29;20513;-96
2020/12/06 21:31:14;;;;;;;40.43;26.00;;;3.30;99.90;;;;;;4868264;29;20642;-95
2020/12/06 21:33:41;;;;;;;41.17;27.03;;;3.30;99.90;;;;;;4865407;29;20190;-95
2020/12/06 21:36:09;;;;;;;43.40;26.73;;;3.30;99.90;;;;;;4865372;29;20195;-96
2020/12/06 21:38:35;;;;;;;40.53;27.43;;;3.30;99.90;;;;;;4864158;29;20195;-94
2020/12/06 21:41:00;;;;;;;43.40;26.73;;;3.30;99.90;;;;;;4868260;29;20218;-95
2020/12/06 21:43:30;;;;;;;46.47;27.73;;;3.30;99.90;;;;;;4866293;29;20650;-95
2020/12/06 21:46:00;;;;;;;40.13;26.17;;;3.30;99.90;;;;;;4868016;29;20192;-95
2020/12/06 21:48:26;;;;;;;43.70;27.40;;;3.30;99.90;;;;;;4862353;29;20230;-95
2020/12/06 21:50:52;;;;;;;43.87;25.67;;;3.30;99.90;;;;;;4865502;29;20191;-94
2020/12/06 21:53:23;;;;;;;46.07;26.43;;;3.30;99.90;;;;;;4866849;29;20272;-96
2020/12/06 21:56:29;;;;;;;45.47;26.83;;;3.30;99.90;;;;;;4866132;29;20188;-95
2020/12/06 21:59:03;;;;;;;43.57;24.97;;;3.30;99.90;;;;;;4867201;29;20247;-95
2020/12/06 22:01:29;;;;;;;38.67;25.03;;;3.20;99.90;;;;;;4853296;29;20592;-94
2020/12/06 22:03:56;;;;;;;44.93;26.13;;;3.30;99.90;;;;;;4868435;29;20193;-95